sensor_id;sensor_type;location;lat;lon;timestamp;P1;durP1;ratioP1;P2;durP2;ratioP2
14141;SDS011;7151;52.246;4.820;2024-02-23T00:00:09;5.47;;;1.30;;
14141;SDS011;7151;52.246;4.820;2024-02-23T00:02:36;3.20;;;1.10;;
14141;SDS011;7151;52.246;4.820;2024-02-23T00:05:02;3.77;;;1.10;;
14141;SDS011;7151;52.246;4.820;2024-02-23T00:07:32;3.57;;;1.47;;
14141;SDS011;7151;52.246;4.820;2024-02-23T00:09:57;2.07;;;1.13;;
14141;SDS011;7151;52.246;4.820;2024-02-23T00:12:47;3.50;;;1.10;;
14141;SDS011;7151;52.246;4.820;2024-02-23T00:15:12;8.13;;;1.87;;
14141;SDS011;7151;52.246;4.820;2024-02-23T00:17:38;4.97;;;1.60;;
14141;SDS011;7151;52.246;4.820;2024-02-23T00:20:04;2.10;;;0.97;;
14141;SDS011;7151;52.246;4.820;2024-02-23T00:22:32;3.20;;;1.40;;
14141;SDS011;7151;52.246;4.820;2024-02-23T00:24:59;2.13;;;0.80;;
14141;SDS011;7151;52.246;4.820;2024-02-23T00:27:24;6.87;;;1.37;;
14141;SDS011;7151;52.246;4.820;2024-02-23T00:29:50;3.57;;;0.80;;
14141;SDS011;7151;52.246;4.820;2024-02-23T00:32:15;10.10;;;1.60;;
14141;SDS011;7151;52.246;4.820;2024-02-23T00:34:41;2.70;;;1.63;;
14141;SDS011;7151;52.246;4.820;2024-02-23T00:37:07;1.90;;;0.80;;
14141;SDS011;7151;52.246;4.820;2024-02-23T00:39:33;8.30;;;1.00;;
14141;SDS011;7151;52.246;4.820;2024-02-23T00:41:58;4.13;;;1.20;;
14141;SDS011;7151;52.246;4.820;2024-02-23T00:44:24;4.40;;;1.20;;
14141;SDS011;7151;52.246;4.820;2024-02-23T00:46:49;3.63;;;1.00;;
14141;SDS011;7151;52.246;4.820;2024-02-23T00:49:15;3.30;;;1.30;;
14141;SDS011;7151;52.246;4.820;2024-02-23T00:51:41;6.97;;;1.50;;
14141;SDS011;7151;52.246;4.820;2024-02-23T00:54:08;5.13;;;1.00;;
14141;SDS011;7151;52.246;4.820;2024-02-23T00:56:34;4.20;;;0.90;;
14141;SDS011;7151;52.246;4.820;2024-02-23T00:59:00;3.17;;;1.20;;
14141;SDS011;7151;52.246;4.820;2024-02-23T01:01:26;4.90;;;1.20;;
14141;SDS011;7151;52.246;4.820;2024-02-23T01:03:53;4.93;;;1.70;;
14141;SDS011;7151;52.246;4.820;2024-02-23T01:06:19;3.93;;;1.03;;
14141;SDS011;7151;52.246;4.820;2024-02-23T01:08:47;3.40;;;1.23;;
14141;SDS011;7151;52.246;4.820;2024-02-23T01:11:13;5.53;;;1.30;;
14141;SDS011;7151;52.246;4.820;2024-02-23T01:13:38;3.13;;;1.63;;
14141;SDS011;7151;52.246;4.820;2024-02-23T01:16:04;3.97;;;0.90;;
14141;SDS011;7151;52.246;4.820;2024-02-23T01:18:29;2.97;;;1.00;;
14141;SDS011;7151;52.246;4.820;2024-02-23T01:20:58;2.97;;;1.10;;
14141;SDS011;7151;52.246;4.820;2024-02-23T01:23:24;2.00;;;0.90;;
14141;SDS011;7151;52.246;4.820;2024-02-23T01:25:49;2.13;;;0.90;;
14141;SDS011;7151;52.246;4.820;2024-02-23T01:28:15;2.70;;;0.97;;
14141;SDS011;7151;52.246;4.820;2024-02-23T01:30:41;3.73;;;1.00;;
14141;SDS011;7151;52.246;4.820;2024-02-23T01:33:06;4.27;;;0.83;;
14141;SDS011;7151;52.246;4.820;2024-02-23T01:35:32;4.30;;;1.00;;
14141;SDS011;7151;52.246;4.820;2024-02-23T01:37:57;4.30;;;1.30;;
14141;SDS011;7151;52.246;4.820;2024-02-23T01:40:23;5.97;;;1.17;;
14141;SDS011;7151;52.246;4.820;2024-02-23T01:42:51;4.17;;;1.00;;
14141;SDS011;7151;52.246;4.820;2024-02-23T01:45:29;4.27;;;1.23;;
14141;SDS011;7151;52.246;4.820;2024-02-23T01:47:55;3.47;;;1.10;;
14141;SDS011;7151;52.246;4.820;2024-02-23T01:50:22;3.33;;;1.20;;
14141;SDS011;7151;52.246;4.820;2024-02-23T01:52:48;3.97;;;1.23;;
14141;SDS011;7151;52.246;4.820;2024-02-23T01:55:18;7.93;;;1.30;;
14141;SDS011;7151;52.246;4.820;2024-02-23T01:57:47;1.63;;;1.27;;
14141;SDS011;7151;52.246;4.820;2024-02-23T02:00:15;6.33;;;1.20;;
14141;SDS011;7151;52.246;4.820;2024-02-23T02:02:42;2.60;;;1.20;;
14141;SDS011;7151;52.246;4.820;2024-02-23T02:05:09;8.80;;;1.73;;
14141;SDS011;7151;52.246;4.820;2024-02-23T02:07:34;2.67;;;1.00;;
14141;SDS011;7151;52.246;4.820;2024-02-23T02:10:00;2.20;;;1.27;;
14141;SDS011;7151;52.246;4.820;2024-02-23T02:12:28;3.37;;;1.10;;
14141;SDS011;7151;52.246;4.820;2024-02-23T02:14:54;2.07;;;0.90;;
14141;SDS011;7151;52.246;4.820;2024-02-23T02:17:20;7.80;;;1.30;;
14141;SDS011;7151;52.246;4.820;2024-02-23T02:19:47;7.73;;;1.10;;
14141;SDS011;7151;52.246;4.820;2024-02-23T02:22:13;5.43;;;0.73;;
14141;SDS011;7151;52.246;4.820;2024-02-23T02:24:39;2.43;;;0.97;;
14141;SDS011;7151;52.246;4.820;2024-02-23T02:27:07;2.43;;;1.10;;
14141;SDS011;7151;52.246;4.820;2024-02-23T02:29:35;2.70;;;0.90;;
14141;SDS011;7151;52.246;4.820;2024-02-23T02:32:00;3.13;;;1.10;;
14141;SDS011;7151;52.246;4.820;2024-02-23T02:34:27;4.93;;;1.50;;
14141;SDS011;7151;52.246;4.820;2024-02-23T02:36:53;1.57;;;0.93;;
14141;SDS011;7151;52.246;4.820;2024-02-23T02:39:19;3.97;;;1.30;;
14141;SDS011;7151;52.246;4.820;2024-02-23T02:41:45;4.80;;;0.90;;
14141;SDS011;7151;52.246;4.820;2024-02-23T02:44:12;4.27;;;1.20;;
14141;SDS011;7151;52.246;4.820;2024-02-23T02:46:39;3.23;;;1.17;;
14141;SDS011;7151;52.246;4.820;2024-02-23T02:49:05;3.17;;;1.17;;
14141;SDS011;7151;52.246;4.820;2024-02-23T02:51:30;3.53;;;0.90;;
14141;SDS011;7151;52.246;4.820;2024-02-23T02:53:56;4.53;;;1.37;;
14141;SDS011;7151;52.246;4.820;2024-02-23T02:56:22;4.70;;;1.00;;
14141;SDS011;7151;52.246;4.820;2024-02-23T02:58:47;2.70;;;0.83;;
14141;SDS011;7151;52.246;4.820;2024-02-23T03:01:13;3.83;;;0.93;;
14141;SDS011;7151;52.246;4.820;2024-02-23T03:03:38;2.90;;;0.93;;
14141;SDS011;7151;52.246;4.820;2024-02-23T03:06:04;4.33;;;0.93;;
14141;SDS011;7151;52.246;4.820;2024-02-23T03:08:30;2.57;;;1.00;;
14141;SDS011;7151;52.246;4.820;2024-02-23T03:10:56;2.77;;;0.93;;
14141;SDS011;7151;52.246;4.820;2024-02-23T03:13:22;3.50;;;0.90;;
14141;SDS011;7151;52.246;4.820;2024-02-23T03:15:48;3.67;;;0.87;;
14141;SDS011;7151;52.246;4.820;2024-02-23T03:18:13;2.83;;;0.93;;
14141;SDS011;7151;52.246;4.820;2024-02-23T03:20:40;2.73;;;0.83;;
14141;SDS011;7151;52.246;4.820;2024-02-23T03:23:06;9.47;;;1.47;;
14141;SDS011;7151;52.246;4.820;2024-02-23T03:25:32;1.20;;;0.80;;
14141;SDS011;7151;52.246;4.820;2024-02-23T03:27:58;3.90;;;1.00;;
14141;SDS011;7151;52.246;4.820;2024-02-23T03:30:25;1.70;;;1.00;;
14141;SDS011;7151;52.246;4.820;2024-02-23T03:32:51;4.43;;;0.80;;
14141;SDS011;7151;52.246;4.820;2024-02-23T03:35:25;3.87;;;1.00;;
14141;SDS011;7151;52.246;4.820;2024-02-23T03:37:51;2.40;;;0.83;;
14141;SDS011;7151;52.246;4.820;2024-02-23T03:40:16;3.73;;;0.77;;
14141;SDS011;7151;52.246;4.820;2024-02-23T03:42:44;3.40;;;1.17;;
14141;SDS011;7151;52.246;4.820;2024-02-23T03:45:09;5.10;;;1.30;;
14141;SDS011;7151;52.246;4.820;2024-02-23T03:47:35;3.80;;;1.00;;
14141;SDS011;7151;52.246;4.820;2024-02-23T03:50:01;2.87;;;0.80;;
14141;SDS011;7151;52.246;4.820;2024-02-23T03:52:26;1.60;;;0.73;;
14141;SDS011;7151;52.246;4.820;2024-02-23T03:54:52;3.87;;;0.93;;
14141;SDS011;7151;52.246;4.820;2024-02-23T03:57:19;1.80;;;1.07;;
14141;SDS011;7151;52.246;4.820;2024-02-23T03:59:52;1.60;;;0.93;;
14141;SDS011;7151;52.246;4.820;2024-02-23T04:02:18;4.33;;;1.23;;
14141;SDS011;7151;52.246;4.820;2024-02-23T04:04:47;3.87;;;0.90;;
14141;SDS011;7151;52.246;4.820;2024-02-23T04:07:13;3.03;;;0.87;;
14141;SDS011;7151;52.246;4.820;2024-02-23T04:09:39;5.17;;;1.63;;
14141;SDS011;7151;52.246;4.820;2024-02-23T04:12:04;3.50;;;0.87;;
14141;SDS011;7151;52.246;4.820;2024-02-23T04:14:32;5.67;;;1.30;;
14141;SDS011;7151;52.246;4.820;2024-02-23T04:17:01;4.67;;;0.93;;
14141;SDS011;7151;52.246;4.820;2024-02-23T04:19:30;2.03;;;0.67;;
14141;SDS011;7151;52.246;4.820;2024-02-23T04:21:55;2.50;;;0.80;;
14141;SDS011;7151;52.246;4.820;2024-02-23T04:24:21;2.13;;;0.93;;
14141;SDS011;7151;52.246;4.820;2024-02-23T04:26:47;1.47;;;1.07;;
14141;SDS011;7151;52.246;4.820;2024-02-23T04:29:12;2.77;;;1.20;;
14141;SDS011;7151;52.246;4.820;2024-02-23T04:31:38;1.50;;;0.80;;
14141;SDS011;7151;52.246;4.820;2024-02-23T04:34:03;4.63;;;0.93;;
14141;SDS011;7151;52.246;4.820;2024-02-23T04:36:29;3.77;;;1.10;;
14141;SDS011;7151;52.246;4.820;2024-02-23T04:38:55;1.43;;;0.73;;
14141;SDS011;7151;52.246;4.820;2024-02-23T04:41:20;3.50;;;1.27;;
14141;SDS011;7151;52.246;4.820;2024-02-23T04:43:47;4.10;;;0.80;;
14141;SDS011;7151;52.246;4.820;2024-02-23T04:46:13;2.17;;;0.97;;
14141;SDS011;7151;52.246;4.820;2024-02-23T04:48:38;1.13;;;0.63;;
14141;SDS011;7151;52.246;4.820;2024-02-23T04:51:04;3.07;;;0.90;;
14141;SDS011;7151;52.246;4.820;2024-02-23T04:53:31;2.90;;;1.10;;
14141;SDS011;7151;52.246;4.820;2024-02-23T04:55:57;1.27;;;0.70;;
14141;SDS011;7151;52.246;4.820;2024-02-23T04:58:22;11.40;;;1.10;;
14141;SDS011;7151;52.246;4.820;2024-02-23T05:00:48;2.20;;;0.90;;
14141;SDS011;7151;52.246;4.820;2024-02-23T05:03:13;3.07;;;0.80;;
14141;SDS011;7151;52.246;4.820;2024-02-23T05:05:40;3.20;;;1.30;;
14141;SDS011;7151;52.246;4.820;2024-02-23T05:08:06;2.40;;;1.00;;
14141;SDS011;7151;52.246;4.820;2024-02-23T05:10:32;2.03;;;1.10;;
14141;SDS011;7151;52.246;4.820;2024-02-23T05:12:57;2.90;;;1.17;;
14141;SDS011;7151;52.246;4.820;2024-02-23T05:15:23;6.03;;;1.50;;
14141;SDS011;7151;52.246;4.820;2024-02-23T05:17:48;2.63;;;1.33;;
14141;SDS011;7151;52.246;4.820;2024-02-23T05:20:14;7.40;;;1.43;;
14141;SDS011;7151;52.246;4.820;2024-02-23T05:22:40;2.73;;;1.00;;
14141;SDS011;7151;52.246;4.820;2024-02-23T05:25:06;4.27;;;0.93;;
14141;SDS011;7151;52.246;4.820;2024-02-23T05:27:32;3.23;;;0.70;;
14141;SDS011;7151;52.246;4.820;2024-02-23T05:29:58;2.60;;;0.63;;
14141;SDS011;7151;52.246;4.820;2024-02-23T05:32:23;2.43;;;1.10;;
14141;SDS011;7151;52.246;4.820;2024-02-23T05:34:49;3.17;;;1.17;;
14141;SDS011;7151;52.246;4.820;2024-02-23T05:37:17;4.93;;;0.80;;
14141;SDS011;7151;52.246;4.820;2024-02-23T05:39:46;3.10;;;0.90;;
14141;SDS011;7151;52.246;4.820;2024-02-23T05:42:12;1.57;;;0.57;;
14141;SDS011;7151;52.246;4.820;2024-02-23T05:44:38;1.77;;;0.60;;
14141;SDS011;7151;52.246;4.820;2024-02-23T05:47:04;2.20;;;0.73;;
14141;SDS011;7151;52.246;4.820;2024-02-23T05:49:30;1.07;;;0.50;;
14141;SDS011;7151;52.246;4.820;2024-02-23T05:51:55;2.20;;;1.00;;
14141;SDS011;7151;52.246;4.820;2024-02-23T05:54:21;4.87;;;1.10;;
14141;SDS011;7151;52.246;4.820;2024-02-23T05:56:47;1.77;;;0.67;;
14141;SDS011;7151;52.246;4.820;2024-02-23T05:59:12;2.13;;;0.77;;
14141;SDS011;7151;52.246;4.820;2024-02-23T06:01:38;1.40;;;0.70;;
14141;SDS011;7151;52.246;4.820;2024-02-23T06:04:03;2.70;;;1.10;;
14141;SDS011;7151;52.246;4.820;2024-02-23T06:06:30;2.97;;;0.93;;
14141;SDS011;7151;52.246;4.820;2024-02-23T06:08:56;4.50;;;0.70;;
14141;SDS011;7151;52.246;4.820;2024-02-23T06:11:21;1.97;;;0.77;;
14141;SDS011;7151;52.246;4.820;2024-02-23T06:13:47;4.53;;;1.10;;
14141;SDS011;7151;52.246;4.820;2024-02-23T06:16:13;2.83;;;1.17;;
14141;SDS011;7151;52.246;4.820;2024-02-23T06:18:38;4.60;;;1.13;;
14141;SDS011;7151;52.246;4.820;2024-02-23T06:21:25;2.17;;;0.97;;
14141;SDS011;7151;52.246;4.820;2024-02-23T06:23:51;2.20;;;0.93;;
14141;SDS011;7151;52.246;4.820;2024-02-23T06:26:16;4.77;;;1.50;;
14141;SDS011;7151;52.246;4.820;2024-02-23T06:28:42;1.83;;;1.40;;
14141;SDS011;7151;52.246;4.820;2024-02-23T06:31:08;6.27;;;1.67;;
14141;SDS011;7151;52.246;4.820;2024-02-23T06:33:34;3.87;;;1.53;;
14141;SDS011;7151;52.246;4.820;2024-02-23T06:36:00;4.00;;;1.60;;
14141;SDS011;7151;52.246;4.820;2024-02-23T06:38:26;3.03;;;1.43;;
14141;SDS011;7151;52.246;4.820;2024-02-23T06:40:52;3.90;;;1.30;;
14141;SDS011;7151;52.246;4.820;2024-02-23T06:43:18;3.10;;;1.40;;
14141;SDS011;7151;52.246;4.820;2024-02-23T06:45:44;2.00;;;1.30;;
14141;SDS011;7151;52.246;4.820;2024-02-23T06:48:10;3.90;;;1.13;;
14141;SDS011;7151;52.246;4.820;2024-02-23T06:50:35;1.53;;;1.07;;
14141;SDS011;7151;52.246;4.820;2024-02-23T06:53:03;1.43;;;1.10;;
14141;SDS011;7151;52.246;4.820;2024-02-23T06:55:30;3.93;;;1.40;;
14141;SDS011;7151;52.246;4.820;2024-02-23T06:57:56;2.70;;;1.37;;
14141;SDS011;7151;52.246;4.820;2024-02-23T07:00:21;3.90;;;1.40;;
14141;SDS011;7151;52.246;4.820;2024-02-23T07:02:47;2.87;;;1.50;;
14141;SDS011;7151;52.246;4.820;2024-02-23T07:05:13;2.00;;;1.40;;
14141;SDS011;7151;52.246;4.820;2024-02-23T07:07:39;4.97;;;1.83;;
14141;SDS011;7151;52.246;4.820;2024-02-23T07:10:06;6.43;;;2.37;;
14141;SDS011;7151;52.246;4.820;2024-02-23T07:12:32;4.43;;;1.63;;
14141;SDS011;7151;52.246;4.820;2024-02-23T07:14:57;5.27;;;2.03;;
14141;SDS011;7151;52.246;4.820;2024-02-23T07:17:23;3.67;;;1.90;;
14141;SDS011;7151;52.246;4.820;2024-02-23T07:19:49;2.47;;;1.50;;
14141;SDS011;7151;52.246;4.820;2024-02-23T07:22:16;5.10;;;1.77;;
14141;SDS011;7151;52.246;4.820;2024-02-23T07:24:48;2.30;;;1.40;;
14141;SDS011;7151;52.246;4.820;2024-02-23T07:27:14;2.50;;;1.83;;
14141;SDS011;7151;52.246;4.820;2024-02-23T07:29:40;3.80;;;1.37;;
14141;SDS011;7151;52.246;4.820;2024-02-23T07:32:05;1.83;;;1.17;;
14141;SDS011;7151;52.246;4.820;2024-02-23T07:34:31;3.30;;;1.40;;
14141;SDS011;7151;52.246;4.820;2024-02-23T07:36:57;2.60;;;1.50;;
14141;SDS011;7151;52.246;4.820;2024-02-23T07:39:23;3.60;;;1.20;;
14141;SDS011;7151;52.246;4.820;2024-02-23T07:41:48;5.07;;;1.20;;
14141;SDS011;7151;52.246;4.820;2024-02-23T07:44:14;4.77;;;1.70;;
14141;SDS011;7151;52.246;4.820;2024-02-23T07:46:39;1.90;;;1.10;;
14141;SDS011;7151;52.246;4.820;2024-02-23T07:49:06;2.80;;;1.20;;
14141;SDS011;7151;52.246;4.820;2024-02-23T07:51:32;3.50;;;1.27;;
14141;SDS011;7151;52.246;4.820;2024-02-23T07:53:58;4.47;;;1.83;;
14141;SDS011;7151;52.246;4.820;2024-02-23T07:56:23;3.50;;;1.47;;
14141;SDS011;7151;52.246;4.820;2024-02-23T07:58:49;5.97;;;1.43;;
14141;SDS011;7151;52.246;4.820;2024-02-23T08:01:15;5.53;;;1.30;;
14141;SDS011;7151;52.246;4.820;2024-02-23T08:03:40;2.10;;;1.20;;
14141;SDS011;7151;52.246;4.820;2024-02-23T08:06:06;5.23;;;1.53;;
14141;SDS011;7151;52.246;4.820;2024-02-23T08:08:32;5.30;;;1.50;;
14141;SDS011;7151;52.246;4.820;2024-02-23T08:11:00;5.70;;;1.60;;
14141;SDS011;7151;52.246;4.820;2024-02-23T08:13:26;3.27;;;1.63;;
14141;SDS011;7151;52.246;4.820;2024-02-23T08:15:52;2.47;;;1.27;;
14141;SDS011;7151;52.246;4.820;2024-02-23T08:18:18;4.37;;;1.53;;
14141;SDS011;7151;52.246;4.820;2024-02-23T08:20:43;3.37;;;1.20;;
14141;SDS011;7151;52.246;4.820;2024-02-23T08:23:09;1.53;;;1.10;;
14141;SDS011;7151;52.246;4.820;2024-02-23T08:25:35;1.93;;;1.30;;
14141;SDS011;7151;52.246;4.820;2024-02-23T08:28:01;3.60;;;1.20;;
14141;SDS011;7151;52.246;4.820;2024-02-23T08:30:27;1.53;;;1.00;;
14141;SDS011;7151;52.246;4.820;2024-02-23T08:32:53;3.50;;;1.30;;
14141;SDS011;7151;52.246;4.820;2024-02-23T08:35:19;6.63;;;1.37;;
14141;SDS011;7151;52.246;4.820;2024-02-23T08:37:45;2.90;;;1.40;;
14141;SDS011;7151;52.246;4.820;2024-02-23T08:40:11;2.70;;;1.10;;
14141;SDS011;7151;52.246;4.820;2024-02-23T08:42:37;5.90;;;1.47;;
14141;SDS011;7151;52.246;4.820;2024-02-23T08:45:02;2.23;;;1.40;;
14141;SDS011;7151;52.246;4.820;2024-02-23T08:47:29;2.17;;;1.30;;
14141;SDS011;7151;52.246;4.820;2024-02-23T08:49:59;1.63;;;1.20;;
14141;SDS011;7151;52.246;4.820;2024-02-23T08:52:25;4.87;;;1.37;;
14141;SDS011;7151;52.246;4.820;2024-02-23T08:54:51;2.40;;;1.23;;
14141;SDS011;7151;52.246;4.820;2024-02-23T08:57:16;2.63;;;1.20;;
14141;SDS011;7151;52.246;4.820;2024-02-23T08:59:44;3.67;;;1.20;;
14141;SDS011;7151;52.246;4.820;2024-02-23T09:02:10;4.57;;;1.47;;
14141;SDS011;7151;52.246;4.820;2024-02-23T09:04:36;2.60;;;1.40;;
14141;SDS011;7151;52.246;4.820;2024-02-23T09:07:02;2.07;;;1.10;;
14141;SDS011;7151;52.246;4.820;2024-02-23T09:09:28;3.70;;;1.03;;
14141;SDS011;7151;52.246;4.820;2024-02-23T09:11:53;3.83;;;1.00;;
14141;SDS011;7151;52.246;4.820;2024-02-23T09:14:22;3.43;;;1.10;;
14141;SDS011;7151;52.246;4.820;2024-02-23T09:16:47;3.13;;;1.23;;
14141;SDS011;7151;52.246;4.820;2024-02-23T09:19:19;2.13;;;1.10;;
14141;SDS011;7151;52.246;4.820;2024-02-23T09:21:45;6.53;;;1.20;;
14141;SDS011;7151;52.246;4.820;2024-02-23T09:24:11;2.50;;;0.80;;
14141;SDS011;7151;52.246;4.820;2024-02-23T09:26:37;2.20;;;0.90;;
14141;SDS011;7151;52.246;4.820;2024-02-23T09:29:04;2.67;;;1.03;;
14141;SDS011;7151;52.246;4.820;2024-02-23T09:31:30;1.47;;;0.80;;
14141;SDS011;7151;52.246;4.820;2024-02-23T09:33:56;2.00;;;0.90;;
14141;SDS011;7151;52.246;4.820;2024-02-23T09:36:22;5.03;;;1.13;;
14141;SDS011;7151;52.246;4.820;2024-02-23T09:38:48;4.67;;;1.10;;
14141;SDS011;7151;52.246;4.820;2024-02-23T09:41:19;1.33;;;0.90;;
14141;SDS011;7151;52.246;4.820;2024-02-23T09:43:46;2.00;;;1.33;;
14141;SDS011;7151;52.246;4.820;2024-02-23T09:46:13;1.83;;;0.97;;
14141;SDS011;7151;52.246;4.820;2024-02-23T09:48:40;4.23;;;1.40;;
14141;SDS011;7151;52.246;4.820;2024-02-23T09:51:08;3.67;;;1.40;;
14141;SDS011;7151;52.246;4.820;2024-02-23T09:53:36;2.03;;;1.03;;
14141;SDS011;7151;52.246;4.820;2024-02-23T09:56:04;2.40;;;0.97;;
14141;SDS011;7151;52.246;4.820;2024-02-23T09:58:34;2.73;;;1.10;;
14141;SDS011;7151;52.246;4.820;2024-02-23T10:01:04;2.77;;;1.00;;
14141;SDS011;7151;52.246;4.820;2024-02-23T10:03:29;3.50;;;1.10;;
14141;SDS011;7151;52.246;4.820;2024-02-23T10:05:56;2.03;;;1.20;;
14141;SDS011;7151;52.246;4.820;2024-02-23T10:08:29;2.40;;;1.27;;
14141;SDS011;7151;52.246;4.820;2024-02-23T10:10:55;1.97;;;1.40;;
14141;SDS011;7151;52.246;4.820;2024-02-23T10:13:24;3.43;;;1.40;;
14141;SDS011;7151;52.246;4.820;2024-02-23T10:15:50;2.13;;;1.10;;
14141;SDS011;7151;52.246;4.820;2024-02-23T10:18:17;2.97;;;1.10;;
14141;SDS011;7151;52.246;4.820;2024-02-23T10:20:43;5.27;;;1.93;;
14141;SDS011;7151;52.246;4.820;2024-02-23T10:23:11;2.37;;;1.10;;
14141;SDS011;7151;52.246;4.820;2024-02-23T10:25:38;2.00;;;0.97;;
14141;SDS011;7151;52.246;4.820;2024-02-23T10:28:04;2.60;;;1.40;;
14141;SDS011;7151;52.246;4.820;2024-02-23T10:30:31;3.90;;;1.50;;
14141;SDS011;7151;52.246;4.820;2024-02-23T10:32:57;1.73;;;1.47;;
14141;SDS011;7151;52.246;4.820;2024-02-23T10:35:23;3.03;;;0.93;;
14141;SDS011;7151;52.246;4.820;2024-02-23T10:37:50;1.90;;;1.10;;
14141;SDS011;7151;52.246;4.820;2024-02-23T10:40:18;3.90;;;1.07;;
14141;SDS011;7151;52.246;4.820;2024-02-23T10:42:45;4.03;;;1.60;;
14141;SDS011;7151;52.246;4.820;2024-02-23T10:45:17;1.20;;;0.90;;
14141;SDS011;7151;52.246;4.820;2024-02-23T10:47:44;5.07;;;1.03;;
14141;SDS011;7151;52.246;4.820;2024-02-23T10:50:10;1.73;;;0.90;;
14141;SDS011;7151;52.246;4.820;2024-02-23T10:52:40;1.70;;;1.13;;
14141;SDS011;7151;52.246;4.820;2024-02-23T10:55:08;1.17;;;0.70;;
14141;SDS011;7151;52.246;4.820;2024-02-23T10:57:34;2.67;;;0.77;;
14141;SDS011;7151;52.246;4.820;2024-02-23T11:00:01;1.33;;;0.63;;
14141;SDS011;7151;52.246;4.820;2024-02-23T11:02:31;3.10;;;1.03;;
14141;SDS011;7151;52.246;4.820;2024-02-23T11:05:00;1.50;;;0.87;;
14141;SDS011;7151;52.246;4.820;2024-02-23T11:07:29;2.60;;;1.33;;
14141;SDS011;7151;52.246;4.820;2024-02-23T11:09:58;2.83;;;1.13;;
14141;SDS011;7151;52.246;4.820;2024-02-23T11:12:25;3.77;;;1.17;;
14141;SDS011;7151;52.246;4.820;2024-02-23T11:14:51;3.53;;;1.10;;
14141;SDS011;7151;52.246;4.820;2024-02-23T11:17:31;1.43;;;0.87;;
14141;SDS011;7151;52.246;4.820;2024-02-23T11:19:58;2.13;;;1.20;;
14141;SDS011;7151;52.246;4.820;2024-02-23T11:22:27;2.40;;;0.90;;
14141;SDS011;7151;52.246;4.820;2024-02-23T11:25:06;6.60;;;0.83;;
14141;SDS011;7151;52.246;4.820;2024-02-23T11:27:36;2.37;;;1.07;;
14141;SDS011;7151;52.246;4.820;2024-02-23T11:30:03;1.27;;;1.00;;
14141;SDS011;7151;52.246;4.820;2024-02-23T11:35:07;4.80;;;0.77;;
14141;SDS011;7151;52.246;4.820;2024-02-23T11:37:48;1.73;;;0.90;;
14141;SDS011;7151;52.246;4.820;2024-02-23T11:40:23;5.73;;;0.93;;
14141;SDS011;7151;52.246;4.820;2024-02-23T11:42:50;0.83;;;0.83;;
14141;SDS011;7151;52.246;4.820;2024-02-23T11:45:16;2.30;;;0.83;;
14141;SDS011;7151;52.246;4.820;2024-02-23T11:47:42;2.90;;;1.20;;
14141;SDS011;7151;52.246;4.820;2024-02-23T11:50:08;2.40;;;0.83;;
14141;SDS011;7151;52.246;4.820;2024-02-23T11:52:36;2.90;;;1.03;;
14141;SDS011;7151;52.246;4.820;2024-02-23T11:55:02;1.87;;;0.80;;
14141;SDS011;7151;52.246;4.820;2024-02-23T11:57:30;1.77;;;0.80;;
14141;SDS011;7151;52.246;4.820;2024-02-23T12:00:02;1.10;;;0.90;;
14141;SDS011;7151;52.246;4.820;2024-02-23T12:02:29;2.53;;;0.70;;
14141;SDS011;7151;52.246;4.820;2024-02-23T12:04:54;1.50;;;0.80;;
14141;SDS011;7151;52.246;4.820;2024-02-23T12:07:20;2.03;;;1.10;;
14141;SDS011;7151;52.246;4.820;2024-02-23T12:09:47;1.50;;;0.70;;
14141;SDS011;7151;52.246;4.820;2024-02-23T12:12:13;1.73;;;1.63;;
14141;SDS011;7151;52.246;4.820;2024-02-23T12:14:39;6.73;;;0.87;;
14141;SDS011;7151;52.246;4.820;2024-02-23T12:17:05;1.80;;;0.60;;
14141;SDS011;7151;52.246;4.820;2024-02-23T12:19:37;2.93;;;0.90;;
14141;SDS011;7151;52.246;4.820;2024-02-23T12:22:04;3.43;;;0.97;;
14141;SDS011;7151;52.246;4.820;2024-02-23T12:24:30;1.03;;;0.70;;
14141;SDS011;7151;52.246;4.820;2024-02-23T12:26:56;1.70;;;0.80;;
14141;SDS011;7151;52.246;4.820;2024-02-23T12:29:22;0.73;;;0.70;;
14141;SDS011;7151;52.246;4.820;2024-02-23T12:31:48;2.53;;;0.97;;
14141;SDS011;7151;52.246;4.820;2024-02-23T12:34:27;1.63;;;0.90;;
14141;SDS011;7151;52.246;4.820;2024-02-23T12:36:52;4.17;;;1.00;;
14141;SDS011;7151;52.246;4.820;2024-02-23T12:39:18;2.93;;;1.00;;
14141;SDS011;7151;52.246;4.820;2024-02-23T12:41:44;2.27;;;0.80;;
14141;SDS011;7151;52.246;4.820;2024-02-23T12:44:09;1.27;;;0.97;;
14141;SDS011;7151;52.246;4.820;2024-02-23T12:46:35;1.93;;;0.93;;
14141;SDS011;7151;52.246;4.820;2024-02-23T12:49:01;2.50;;;1.43;;
14141;SDS011;7151;52.246;4.820;2024-02-23T12:51:27;1.30;;;0.70;;
14141;SDS011;7151;52.246;4.820;2024-02-23T12:53:52;1.53;;;0.90;;
14141;SDS011;7151;52.246;4.820;2024-02-23T12:56:19;1.40;;;0.60;;
14141;SDS011;7151;52.246;4.820;2024-02-23T12:58:45;3.13;;;0.80;;
14141;SDS011;7151;52.246;4.820;2024-02-23T13:01:11;1.20;;;0.87;;
14141;SDS011;7151;52.246;4.820;2024-02-23T13:03:38;3.40;;;1.00;;
14141;SDS011;7151;52.246;4.820;2024-02-23T13:06:06;1.60;;;0.80;;
14141;SDS011;7151;52.246;4.820;2024-02-23T13:08:32;3.10;;;0.77;;
14141;SDS011;7151;52.246;4.820;2024-02-23T13:10:58;1.27;;;0.60;;
14141;SDS011;7151;52.246;4.820;2024-02-23T13:13:23;2.97;;;0.70;;
14141;SDS011;7151;52.246;4.820;2024-02-23T13:15:50;2.30;;;0.73;;
14141;SDS011;7151;52.246;4.820;2024-02-23T13:18:17;1.77;;;0.70;;
14141;SDS011;7151;52.246;4.820;2024-02-23T13:20:44;0.87;;;0.60;;
14141;SDS011;7151;52.246;4.820;2024-02-23T13:23:10;1.90;;;0.63;;
14141;SDS011;7151;52.246;4.820;2024-02-23T13:25:37;1.97;;;0.70;;
14141;SDS011;7151;52.246;4.820;2024-02-23T13:28:04;2.27;;;0.60;;
14141;SDS011;7151;52.246;4.820;2024-02-23T13:30:30;1.70;;;0.60;;
14141;SDS011;7151;52.246;4.820;2024-02-23T13:32:56;1.23;;;0.50;;
14141;SDS011;7151;52.246;4.820;2024-02-23T13:35:22;1.57;;;0.67;;
14141;SDS011;7151;52.246;4.820;2024-02-23T13:37:48;3.43;;;0.53;;
14141;SDS011;7151;52.246;4.820;2024-02-23T13:40:14;0.70;;;0.40;;
14141;SDS011;7151;52.246;4.820;2024-02-23T13:42:39;0.60;;;0.50;;
14141;SDS011;7151;52.246;4.820;2024-02-23T13:45:06;0.97;;;0.60;;
14141;SDS011;7151;52.246;4.820;2024-02-23T13:47:32;4.00;;;0.77;;
14141;SDS011;7151;52.246;4.820;2024-02-23T13:49:58;0.93;;;0.73;;
14141;SDS011;7151;52.246;4.820;2024-02-23T13:52:23;1.20;;;0.70;;
14141;SDS011;7151;52.246;4.820;2024-02-23T13:54:49;3.73;;;0.50;;
14141;SDS011;7151;52.246;4.820;2024-02-23T13:57:15;0.87;;;0.60;;
14141;SDS011;7151;52.246;4.820;2024-02-23T13:59:40;0.60;;;0.40;;
14141;SDS011;7151;52.246;4.820;2024-02-23T14:02:06;0.53;;;0.30;;
14141;SDS011;7151;52.246;4.820;2024-02-23T14:04:32;3.23;;;0.47;;
14141;SDS011;7151;52.246;4.820;2024-02-23T14:06:58;0.40;;;0.40;;
14141;SDS011;7151;52.246;4.820;2024-02-23T14:09:23;0.63;;;0.40;;
14141;SDS011;7151;52.246;4.820;2024-02-23T14:11:52;0.30;;;0.30;;
14141;SDS011;7151;52.246;4.820;2024-02-23T14:14:18;1.47;;;0.60;;
14141;SDS011;7151;52.246;4.820;2024-02-23T14:16:45;1.07;;;0.43;;
14141;SDS011;7151;52.246;4.820;2024-02-23T14:19:10;0.60;;;0.60;;
14141;SDS011;7151;52.246;4.820;2024-02-23T14:21:36;1.07;;;0.63;;
14141;SDS011;7151;52.246;4.820;2024-02-23T14:24:02;0.97;;;0.50;;
14141;SDS011;7151;52.246;4.820;2024-02-23T14:26:29;1.70;;;0.40;;
14141;SDS011;7151;52.246;4.820;2024-02-23T14:28:54;1.07;;;0.40;;
14141;SDS011;7151;52.246;4.820;2024-02-23T14:31:20;3.00;;;0.60;;
14141;SDS011;7151;52.246;4.820;2024-02-23T14:33:46;1.43;;;0.87;;
14141;SDS011;7151;52.246;4.820;2024-02-23T14:36:15;0.50;;;0.30;;
14141;SDS011;7151;52.246;4.820;2024-02-23T14:38:41;1.60;;;0.60;;
14141;SDS011;7151;52.246;4.820;2024-02-23T14:41:07;0.30;;;0.30;;
14141;SDS011;7151;52.246;4.820;2024-02-23T14:43:34;1.20;;;0.40;;
14141;SDS011;7151;52.246;4.820;2024-02-23T14:46:01;1.40;;;0.30;;
14141;SDS011;7151;52.246;4.820;2024-02-23T14:48:27;1.07;;;0.63;;
14141;SDS011;7151;52.246;4.820;2024-02-23T14:50:53;0.40;;;0.40;;
14141;SDS011;7151;52.246;4.820;2024-02-23T14:53:18;0.30;;;0.30;;
14141;SDS011;7151;52.246;4.820;2024-02-23T14:55:47;0.40;;;0.40;;
14141;SDS011;7151;52.246;4.820;2024-02-23T14:58:13;0.60;;;0.50;;